createdAt,value
2022-08-22T00:01:18.774Z,100.00
2022-08-22T00:03:11.076Z,100.00
2022-08-22T00:03:11.173Z,92.28
2022-08-22T00:03:58.547Z,100.00
2022-08-22T00:06:54.593Z,100.00
2022-08-22T00:09:46.435Z,100.00
2022-08-22T00:12:25.100Z,100.00
2022-08-22T00:15:01.348Z,100.00
2022-08-22T00:17:45.136Z,100.00
2022-08-22T00:20:32.599Z,100.00
2022-08-22T00:23:12.536Z,100.00
2022-08-22T00:25:54.682Z,100.00
2022-08-22T00:28:29.801Z,100.00
2022-08-22T00:31:16.153Z,100.00
2022-08-22T00:33:50.326Z,100.00
2022-08-22T00:36:25.872Z,100.00
2022-08-22T00:39:04.379Z,100.00
2022-08-22T00:41:38.949Z,100.00
2022-08-22T00:44:47.526Z,100.00
2022-08-22T00:47:17.587Z,100.00
2022-08-22T00:49:56.806Z,100.00
2022-08-22T00:52:32.548Z,100.00
2022-08-22T00:55:34.928Z,100.00
2022-08-22T00:58:40.364Z,100.00
2022-08-22T01:01:11.795Z,100.00
2022-08-22T01:03:44.526Z,100.00
2022-08-22T01:06:59.038Z,100.00
2022-08-22T01:09:32.983Z,100.00
2022-08-22T01:12:09.581Z,100.00
2022-08-22T01:15:06.486Z,100.00
2022-08-22T01:17:45.068Z,100.00
2022-08-22T01:20:46.300Z,100.00
2022-08-22T01:23:37.182Z,100.00
2022-08-22T01:26:22.556Z,100.00
2022-08-22T01:29:29.460Z,100.00
2022-08-22T01:32:22.419Z,100.00
2022-08-22T01:35:46.343Z,100.00
2022-08-22T01:39:03.443Z,100.00
2022-08-22T01:41:41.368Z,100.00
2022-08-22T01:44:34.406Z,100.00
2022-08-22T01:47:05.006Z,100.00
2022-08-22T01:49:34.577Z,100.00
2022-08-22T01:52:24.782Z,100.00
2022-08-22T01:54:58.571Z,100.00
2022-08-22T01:57:26.628Z,100.00
2022-08-22T01:59:59.324Z,100.00
2022-08-22T02:02:48.343Z,100.00
2022-08-22T02:05:31.812Z,100.00
2022-08-22T02:08:40.734Z,100.00
2022-08-22T02:11:11.897Z,100.00
2022-08-22T02:13:47.860Z,100.00
2022-08-22T02:16:33.415Z,100.00
2022-08-22T02:19:00.356Z,100.00
2022-08-22T02:21:42.344Z,100.00
2022-08-22T02:24:19.274Z,100.00
2022-08-22T02:26:51.783Z,100.00
2022-08-22T02:29:33.814Z,100.00
2022-08-22T02:32:08.593Z,100.00
2022-08-22T02:34:49.607Z,100.00
2022-08-22T02:37:38.137Z,100.00
2022-08-22T02:40:08.703Z,100.00
2022-08-22T02:42:40.315Z,100.00
2022-08-22T02:45:34.639Z,100.00
2022-08-22T02:48:11.438Z,100.00
2022-08-22T02:50:47.535Z,100.00
2022-08-22T02:53:21.729Z,100.00
2022-08-22T02:56:01.873Z,100.00
2022-08-22T02:58:44.136Z,100.00
2022-08-22T03:01:29.959Z,100.00
2022-08-22T03:04:44.503Z,100.00
2022-08-22T03:07:20.715Z,100.00
2022-08-22T03:09:59.506Z,100.00
2022-08-22T03:13:01.713Z,100.00
2022-08-22T03:15:49.308Z,100.00
2022-08-22T03:18:39.142Z,100.00
2022-08-22T03:21:31.135Z,100.00
2022-08-22T03:24:09.966Z,100.00
2022-08-22T03:26:42.817Z,100.00
2022-08-22T03:29:17.313Z,100.00
2022-08-22T03:32:08.889Z,100.00
2022-08-22T03:34:36.981Z,100.00
2022-08-22T03:37:21.045Z,100.00
2022-08-22T03:40:13.172Z,100.00
2022-08-22T03:43:09.016Z,100.00
2022-08-22T03:45:54.876Z,100.00
2022-08-22T03:49:07.041Z,100.00
2022-08-22T03:51:58.922Z,100.00
2022-08-22T03:54:47.988Z,100.00
2022-08-22T03:57:20.933Z,100.00
2022-08-22T03:59:57.462Z,100.00
2022-08-22T04:02:49.382Z,100.00
2022-08-22T04:05:45.408Z,100.00
2022-08-22T04:09:14.201Z,100.00
2022-08-22T04:12:18.328Z,100.00
2022-08-22T04:15:03.975Z,100.00
2022-08-22T04:17:31.477Z,100.00
2022-08-22T04:20:09.407Z,100.00
2022-08-22T04:22:48.946Z,100.00
2022-08-22T04:25:23.425Z,100.00
2022-08-22T04:28:11.247Z,100.00
2022-08-22T04:30:50.807Z,100.00
2022-08-22T04:33:49.828Z,100.00
2022-08-22T04:36:32.543Z,100.00
2022-08-22T04:39:13.835Z,100.00
2022-08-22T04:41:48.861Z,100.00
2022-08-22T04:44:35.888Z,100.00
2022-08-22T04:47:10.600Z,100.00
2022-08-22T04:49:40.825Z,100.00
2022-08-22T04:52:11.048Z,100.00
2022-08-22T04:54:57.483Z,100.00
2022-08-22T04:57:38.287Z,100.00
2022-08-22T05:00:09.146Z,100.00
2022-08-22T05:02:40.096Z,100.00
2022-08-22T05:05:13.445Z,100.00
2022-08-22T05:07:46.567Z,100.00
2022-08-22T05:10:23.234Z,100.00
2022-08-22T05:13:04.634Z,100.00
2022-08-22T05:15:35.935Z,100.00
2022-08-22T05:18:09.416Z,100.00
2022-08-22T05:20:39.471Z,100.00
2022-08-22T05:23:20.217Z,100.00
2022-08-22T05:25:51.186Z,100.00
2022-08-22T05:28:32.244Z,100.00
2022-08-22T05:31:02.756Z,100.00
2022-08-22T05:33:41.668Z,100.00
2022-08-22T05:36:13.871Z,100.00
2022-08-22T05:38:47.533Z,100.00
2022-08-22T05:41:23.772Z,100.00
2022-08-22T05:43:51.683Z,100.00
2022-08-22T05:46:27.086Z,100.00
2022-08-22T05:49:00.381Z,100.00
2022-08-22T05:51:37.625Z,100.00
2022-08-22T05:54:14.084Z,100.00
2022-08-22T05:57:00.412Z,100.00
2022-08-22T05:59:32.767Z,100.00
2022-08-22T06:02:08.592Z,100.00
2022-08-22T06:04:47.473Z,100.00
2022-08-22T06:07:33.659Z,100.00
2022-08-22T06:10:22.892Z,100.00
2022-08-22T06:13:14.083Z,100.00
2022-08-22T06:15:44.439Z,100.00
2022-08-22T06:18:21.031Z,100.00
2022-08-22T06:20:56.367Z,100.00
2022-08-22T06:23:49.922Z,100.00
2022-08-22T06:26:21.166Z,100.00
2022-08-22T06:28:55.058Z,100.00
2022-08-22T06:31:29.943Z,100.00
2022-08-22T06:34:17.707Z,100.00
2022-08-22T06:36:48.697Z,100.00
2022-08-22T06:39:31.297Z,100.00
2022-08-22T06:42:16.688Z,100.00
2022-08-22T06:45:08.313Z,100.00
2022-08-22T06:47:41.547Z,100.00
2022-08-22T06:50:14.835Z,100.00
2022-08-22T06:52:53.697Z,100.00
2022-08-22T06:55:22.910Z,100.00
2022-08-22T06:57:55.609Z,100.00
2022-08-22T07:00:23.241Z,100.00
2022-08-22T07:02:57.713Z,100.00
2022-08-22T07:05:29.461Z,100.00
2022-08-22T07:07:57.318Z,100.00
2022-08-22T07:10:25.101Z,100.00
2022-08-22T07:12:54.487Z,100.00
2022-08-22T07:15:51.639Z,100.00
2022-08-22T07:18:21.315Z,100.00
2022-08-22T07:20:54.978Z,100.00
2022-08-22T07:23:34.062Z,100.00
2022-08-22T07:26:13.532Z,100.00
2022-08-22T07:28:51.650Z,100.00
2022-08-22T07:31:58.127Z,100.00
2022-08-22T07:34:25.787Z,100.00
2022-08-22T07:37:38.835Z,100.00
2022-08-22T07:40:05.751Z,100.00
2022-08-22T07:43:26.276Z,100.00
2022-08-22T07:46:14.914Z,100.00
2022-08-22T07:49:09.566Z,100.00
2022-08-22T07:51:47.444Z,100.00
2022-08-22T07:54:19.673Z,100.00
2022-08-22T07:57:03.434Z,100.00
2022-08-22T07:59:33.423Z,100.00
2022-08-22T08:02:04.883Z,100.00
2022-08-22T08:04:40.005Z,100.00
2022-08-22T08:07:10.608Z,100.00
2022-08-22T08:09:46.664Z,99.49
2022-08-22T08:12:15.764Z,98.34
2022-08-22T08:14:45.468Z,96.88
2022-08-22T08:17:23.938Z,95.97
2022-08-22T08:19:52.287Z,94.36
2022-08-22T08:22:25.637Z,93.42
2022-08-22T08:24:57.264Z,93.56
2022-08-22T08:27:50.547Z,93.31
2022-08-22T08:30:40.897Z,93.64
2022-08-22T08:33:26.152Z,92.27
2022-08-22T08:36:06.135Z,90.49
2022-08-22T08:38:45.150Z,89.68
2022-08-22T08:41:38.667Z,88.53
2022-08-22T08:44:37.904Z,87.33
2022-08-22T08:47:42.999Z,86.61
2022-08-22T08:50:33.147Z,85.02
2022-08-22T08:52:59.968Z,84.55
2022-08-22T08:55:36.117Z,84.07
2022-08-22T08:58:21.569Z,82.76
2022-08-22T09:01:07.960Z,81.56
2022-08-22T09:03:51.375Z,81.03
2022-08-22T09:06:37.363Z,80.21
2022-08-22T09:09:24.956Z,80.66
2022-08-22T09:12:17.255Z,81.07
2022-08-22T09:15:14.348Z,77.96
2022-08-22T09:17:53.577Z,76.86
2022-08-22T09:20:39.625Z,76.94
2022-08-22T09:23:17.022Z,74.55
2022-08-22T09:25:59.672Z,74.59
2022-08-22T09:28:46.241Z,75.35
2022-08-22T09:31:51.479Z,73.45
2022-08-22T09:34:35.429Z,74.12
2022-08-22T09:37:32.262Z,72.82
2022-08-22T09:40:37.843Z,71.18
2022-08-22T09:43:21.270Z,70.97
2022-08-22T09:46:07.781Z,70.70
2022-08-22T09:49:06.913Z,68.81
2022-08-22T09:51:45.172Z,66.46
2022-08-22T09:54:31.563Z,66.65
2022-08-22T09:57:19.112Z,66.97
2022-08-22T10:00:14.991Z,66.22
2022-08-22T10:03:07.894Z,64.92
2022-08-22T10:05:45.507Z,64.66
2022-08-22T10:08:26.370Z,63.77
2022-08-22T10:11:14.535Z,63.22
2022-08-22T10:14:00.806Z,63.46
2022-08-22T10:16:31.200Z,64.43
2022-08-22T10:19:20.260Z,63.14
2022-08-22T10:22:31.663Z,60.02
2022-08-22T10:25:07.963Z,61.37
2022-08-22T10:27:56.936Z,61.42
2022-08-22T10:30:36.613Z,59.65
2022-08-22T10:33:30.821Z,57.98
2022-08-22T10:36:05.002Z,57.19
2022-08-22T10:38:46.502Z,57.62
2022-08-22T10:41:30.286Z,58.15
2022-08-22T10:44:26.898Z,58.85
2022-08-22T10:47:01.194Z,57.20
2022-08-22T10:49:41.880Z,58.25
2022-08-22T10:52:15.649Z,58.21
2022-08-22T10:54:46.071Z,58.04
2022-08-22T10:57:41.822Z,57.53
2022-08-22T11:00:46.353Z,54.06
2022-08-22T11:03:26.452Z,54.79
2022-08-22T11:05:59.164Z,54.23
2022-08-22T11:08:45.188Z,55.87
2022-08-22T11:11:15.191Z,54.24
2022-08-22T11:13:50.612Z,54.40
2022-08-22T11:16:36.779Z,51.99
2022-08-22T11:19:15.632Z,51.97
2022-08-22T11:21:48.580Z,52.79
2022-08-22T11:24:55.693Z,53.99
2022-08-22T11:27:40.105Z,52.15
2022-08-22T11:30:18.483Z,51.53
2022-08-22T11:33:18.656Z,50.84
2022-08-22T11:36:36.742Z,50.82
2022-08-22T11:39:25.464Z,50.83
2022-08-22T11:42:15.157Z,50.50
2022-08-22T11:44:56.537Z,48.65
2022-08-22T11:47:30.377Z,48.55
2022-08-22T11:49:58.215Z,46.57
2022-08-22T11:52:25.542Z,46.76
2022-08-22T11:55:33.185Z,45.79
2022-08-22T11:58:05.279Z,46.00
2022-08-22T12:00:48.712Z,44.81
2022-08-22T12:03:35.465Z,45.41
2022-08-22T12:06:21.620Z,47.83
2022-08-22T12:08:51.284Z,45.47
2022-08-22T12:11:54.807Z,46.55
2022-08-22T12:14:31.100Z,44.75
2022-08-22T12:17:55.526Z,44.13
2022-08-22T12:20:39.546Z,45.97
2022-08-22T12:23:49.404Z,45.78
2022-08-22T12:27:00.053Z,45.44
2022-08-22T12:29:55.779Z,48.27
2022-08-22T12:32:56.653Z,47.41
2022-08-22T12:35:38.845Z,45.52
2022-08-22T12:38:38.249Z,45.80
2022-08-22T12:41:28.229Z,45.94
2022-08-22T12:44:17.440Z,45.68
2022-08-22T12:47:03.009Z,46.48
2022-08-22T12:50:02.142Z,46.99
2022-08-22T12:53:14.973Z,46.90
2022-08-22T12:56:25.259Z,48.52
2022-08-22T12:59:20.290Z,48.33
2022-08-22T13:01:51.484Z,48.07
2022-08-22T13:04:33.160Z,48.16
2022-08-22T13:07:08.949Z,46.72
2022-08-22T13:09:46.268Z,45.66
2022-08-22T13:12:26.210Z,43.95
2022-08-22T13:15:21.113Z,43.29
2022-08-22T13:17:51.902Z,43.83
2022-08-22T13:20:41.732Z,41.83
2022-08-22T13:23:20.334Z,42.04
2022-08-22T13:26:00.063Z,42.86
2022-08-22T13:28:31.660Z,43.24
2022-08-22T13:31:01.780Z,43.85
2022-08-22T13:33:36.862Z,45.56
2022-08-22T13:36:10.875Z,46.84
2022-08-22T13:38:50.010Z,46.76
2022-08-22T13:41:48.698Z,46.73
2022-08-22T13:44:31.519Z,45.47
2022-08-22T13:47:14.291Z,44.06
2022-08-22T13:49:46.978Z,45.34
2022-08-22T13:52:32.993Z,45.78
2022-08-22T13:55:19.934Z,45.32
2022-08-22T13:57:51.977Z,45.68
2022-08-22T14:00:28.825Z,45.75
2022-08-22T14:03:08.003Z,45.49
2022-08-22T14:05:47.804Z,45.30
2022-08-22T14:08:28.820Z,45.67
2022-08-22T14:11:02.157Z,45.70
2022-08-22T14:13:36.811Z,44.88
2022-08-22T14:16:10.390Z,45.38
2022-08-22T14:18:50.867Z,44.64
2022-08-22T14:21:45.547Z,43.62
2022-08-22T14:24:18.818Z,46.33
2022-08-22T14:26:57.972Z,48.12
2022-08-22T14:29:29.167Z,48.98
2022-08-22T14:32:12.699Z,48.93
2022-08-22T14:34:45.393Z,48.74
2022-08-22T14:37:24.201Z,49.52
2022-08-22T14:39:58.214Z,51.55
2022-08-22T14:42:30.394Z,52.50
2022-08-22T14:45:08.731Z,52.44
2022-08-22T14:48:14.194Z,52.54
2022-08-22T14:50:58.847Z,50.14
2022-08-22T14:53:30.202Z,51.03
2022-08-22T14:56:15.426Z,51.53
2022-08-22T14:58:58.200Z,51.84
2022-08-22T15:01:29.956Z,52.86
2022-08-22T15:04:07.955Z,53.99
2022-08-22T15:06:58.590Z,54.23
2022-08-22T15:09:31.580Z,52.08
2022-08-22T15:12:01.567Z,51.59
2022-08-22T15:14:51.887Z,53.71
2022-08-22T15:17:37.759Z,55.32
2022-08-22T15:20:38.237Z,54.76
2022-08-22T15:23:22.023Z,52.80
2022-08-22T15:26:17.005Z,52.45
2022-08-22T15:28:52.664Z,50.94
2022-08-22T15:31:21.459Z,51.25
2022-08-22T15:33:49.443Z,51.23
2022-08-22T15:36:26.985Z,49.94
2022-08-22T15:39:31.010Z,47.70
2022-08-22T15:41:59.867Z,47.41
2022-08-22T15:44:34.876Z,47.04
2022-08-22T15:47:09.553Z,46.47
2022-08-22T15:50:05.405Z,45.70
2022-08-22T15:52:59.751Z,45.97
2022-08-22T15:55:34.314Z,45.54
2022-08-22T15:58:20.704Z,45.07
2022-08-22T16:01:18.944Z,44.17
2022-08-22T16:04:14.466Z,43.10
2022-08-22T16:06:55.393Z,42.18
2022-08-22T16:09:43.482Z,42.33
2022-08-22T16:12:34.356Z,42.41
2022-08-22T16:15:05.835Z,41.88
2022-08-22T16:17:43.643Z,42.35
2022-08-22T16:20:19.698Z,42.57
2022-08-22T16:22:59.254Z,41.75
2022-08-22T16:25:50.275Z,41.99
2022-08-22T16:28:56.991Z,42.38
2022-08-22T16:31:23.931Z,41.30
2022-08-22T16:33:51.540Z,41.12
2022-08-22T16:36:37.077Z,41.56
2022-08-22T16:39:12.661Z,41.71
2022-08-22T16:41:43.780Z,41.92
2022-08-22T16:44:23.658Z,41.60
2022-08-22T16:46:52.992Z,40.86
2022-08-22T16:49:31.437Z,41.15
2022-08-22T16:52:26.317Z,41.58
2022-08-22T16:55:04.994Z,41.96
2022-08-22T16:57:59.390Z,41.91
2022-08-22T17:00:31.617Z,42.29
2022-08-22T17:03:27.318Z,42.45
2022-08-22T17:06:13.007Z,43.55
2022-08-22T17:09:17.595Z,44.01
2022-08-22T17:12:23.660Z,44.87
2022-08-22T17:15:11.088Z,45.39
2022-08-22T17:17:53.116Z,45.88
2022-08-22T17:20:47.984Z,46.57
2022-08-22T17:23:30.004Z,46.98
2022-08-22T17:26:12.042Z,47.08
2022-08-22T17:28:54.647Z,47.79
2022-08-22T17:31:27.819Z,48.29
2022-08-22T17:34:32.947Z,48.61
2022-08-22T17:37:24.143Z,49.26
2022-08-22T17:40:00.344Z,49.60
2022-08-22T17:42:51.873Z,49.86
2022-08-22T17:45:45.722Z,50.84
2022-08-22T17:48:26.720Z,51.21
2022-08-22T17:51:28.323Z,52.38
2022-08-22T17:54:14.423Z,53.94
2022-08-22T17:56:45.390Z,54.77
2022-08-22T17:59:21.408Z,55.42
2022-08-22T18:01:56.170Z,55.83
2022-08-22T18:04:59.138Z,58.78
2022-08-22T18:07:45.168Z,61.04
2022-08-22T18:10:19.671Z,63.16
2022-08-22T18:12:51.895Z,64.84
2022-08-22T18:15:34.280Z,67.18
2022-08-22T18:18:11.739Z,68.79
2022-08-22T18:21:10.611Z,70.61
2022-08-22T18:23:44.860Z,71.97
2022-08-22T18:26:36.423Z,72.97
2022-08-22T18:29:21.482Z,74.22
2022-08-22T18:32:00.477Z,75.24
2022-08-22T18:35:13.143Z,76.26
2022-08-22T18:37:58.036Z,77.52
2022-08-22T18:40:37.763Z,78.61
2022-08-22T18:43:28.356Z,79.65
2022-08-22T18:46:02.960Z,80.54
2022-08-22T18:48:30.351Z,80.85
2022-08-22T18:51:24.451Z,81.75
2022-08-22T18:54:03.889Z,82.27
2022-08-22T18:56:31.540Z,82.83
2022-08-22T18:59:06.106Z,83.20
2022-08-22T19:02:05.612Z,83.57
2022-08-22T19:04:41.731Z,84.05
2022-08-22T19:07:36.156Z,84.40
2022-08-22T19:10:05.801Z,85.15
2022-08-22T19:13:02.913Z,85.47
2022-08-22T19:15:45.041Z,86.01
2022-08-22T19:18:49.491Z,86.59
2022-08-22T19:21:39.955Z,86.98
2022-08-22T19:24:27.289Z,86.99
2022-08-22T19:27:20.199Z,87.39
2022-08-22T19:29:47.241Z,87.57
2022-08-22T19:32:46.102Z,88.07
2022-08-22T19:35:20.523Z,88.45
2022-08-22T19:38:02.595Z,88.72
2022-08-22T19:40:44.761Z,89.38
2022-08-22T19:43:42.353Z,89.55
2022-08-22T19:46:13.201Z,89.77
2022-08-22T19:48:50.043Z,90.15
2022-08-22T19:51:19.723Z,90.55
2022-08-22T19:53:56.954Z,90.63
2022-08-22T19:56:45.868Z,90.90
2022-08-22T19:59:20.083Z,91.90
2022-08-22T20:01:49.842Z,91.87
2022-08-22T20:04:35.375Z,91.79
2022-08-22T20:07:34.019Z,92.04
2022-08-22T20:10:39.674Z,92.15
2022-08-22T20:13:19.532Z,92.33
2022-08-22T20:16:43.124Z,92.42
2022-08-22T20:19:10.214Z,92.69
2022-08-22T20:21:46.447Z,92.85
2022-08-22T20:24:29.611Z,92.97
2022-08-22T20:27:15.629Z,92.76
2022-08-22T20:29:49.392Z,93.40
2022-08-22T20:32:19.567Z,93.55
2022-08-22T20:34:50.656Z,93.67
2022-08-22T20:37:56.179Z,93.87
2022-08-22T20:40:55.262Z,94.31
2022-08-22T20:43:35.724Z,94.89
2022-08-22T20:46:12.779Z,95.37
2022-08-22T20:48:43.854Z,95.31
2022-08-22T20:51:16.110Z,95.72
2022-08-22T20:53:51.514Z,95.81
2022-08-22T20:56:48.838Z,96.18
2022-08-22T20:59:29.895Z,96.27
2022-08-22T21:02:35.579Z,96.51
2022-08-22T21:05:06.766Z,96.77
2022-08-22T21:07:35.425Z,97.15
2022-08-22T21:10:44.709Z,97.33
2022-08-22T21:13:28.481Z,97.31
2022-08-22T21:15:58.092Z,97.62
2022-08-22T21:18:41.131Z,97.96
2022-08-22T21:21:18.140Z,97.89
2022-08-22T21:23:56.412Z,98.23
2022-08-22T21:26:32.620Z,98.42
2022-08-22T21:29:14.849Z,98.75
2022-08-22T21:31:46.001Z,98.78
2022-08-22T21:34:19.584Z,98.88
2022-08-22T21:36:48.336Z,98.86
2022-08-22T21:39:25.035Z,99.08
2022-08-22T21:42:15.649Z,99.00
2022-08-22T21:44:54.144Z,99.23
2022-08-22T21:47:32.764Z,99.50
2022-08-22T21:49:59.560Z,99.44
2022-08-22T21:52:36.222Z,99.76
2022-08-22T21:55:21.803Z,99.96
2022-08-22T21:58:12.762Z,100.00
2022-08-22T22:01:02.462Z,100.00
2022-08-22T22:03:38.362Z,100.00
2022-08-22T22:06:06.754Z,100.00
2022-08-22T22:08:33.765Z,100.00
2022-08-22T22:11:08.423Z,100.00
2022-08-22T22:13:35.746Z,99.96
2022-08-22T22:16:03.118Z,100.00
2022-08-22T22:18:31.618Z,100.00
2022-08-22T22:20:58.709Z,100.00
2022-08-22T22:23:26.295Z,100.00
2022-08-22T22:25:55.793Z,100.00
2022-08-22T22:28:32.668Z,100.00
2022-08-22T22:30:59.671Z,100.00
2022-08-22T22:33:29.792Z,100.00
2022-08-22T22:36:01.252Z,100.00
2022-08-22T22:38:28.223Z,100.00
2022-08-22T22:40:55.120Z,100.00
2022-08-22T22:43:22.194Z,100.00
2022-08-22T22:45:49.215Z,100.00
2022-08-22T22:48:22.271Z,100.00
2022-08-22T22:50:52.789Z,100.00
2022-08-22T22:53:25.833Z,100.00
2022-08-22T22:56:09.320Z,100.00
2022-08-22T22:58:37.665Z,100.00
2022-08-22T23:01:18.371Z,100.00
2022-08-22T23:03:45.442Z,100.00
2022-08-22T23:06:14.401Z,100.00
2022-08-22T23:08:41.519Z,100.00
2022-08-22T23:11:11.414Z,100.00
2022-08-22T23:13:39.564Z,100.00
2022-08-22T23:16:09.392Z,100.00
2022-08-22T23:18:36.425Z,100.00
2022-08-22T23:21:30.520Z,100.00
2022-08-22T23:23:59.379Z,100.00
2022-08-22T23:26:27.155Z,100.00
2022-08-22T23:28:54.227Z,100.00
2022-08-22T23:31:37.686Z,100.00
2022-08-22T23:34:17.639Z,100.00
2022-08-22T23:36:47.552Z,100.00
2022-08-22T23:39:16.351Z,100.00
2022-08-22T23:41:46.454Z,100.00
2022-08-22T23:44:15.900Z,100.00
2022-08-22T23:46:44.025Z,100.00
2022-08-22T23:49:11.943Z,100.00
2022-08-22T23:51:39.603Z,100.00
2022-08-22T23:54:07.089Z,100.00
2022-08-22T23:56:39.949Z,100.00
2022-08-22T23:59:09.981Z,100.00
